createdAt,value
2019-03-22T00:00:11.449Z,101910
2019-03-22T00:02:40.306Z,101909
2019-03-22T00:05:09.146Z,101911
2019-03-22T00:07:38.742Z,101909
2019-03-22T00:10:07.589Z,101906
2019-03-22T00:12:36.418Z,101901
2019-03-22T00:15:06.233Z,101900
2019-03-22T00:17:35.070Z,101897
2019-03-22T00:20:04.818Z,101889
2019-03-22T00:22:33.645Z,101898
2019-03-22T00:25:02.789Z,101895
2019-03-22T00:27:31.630Z,101902
2019-03-22T00:30:00.484Z,101897
2019-03-22T00:32:29.334Z,101898
2019-03-22T00:34:58.428Z,101904
2019-03-22T00:37:27.267Z,101902
2019-03-22T00:39:56.122Z,101898
2019-03-22T00:42:24.962Z,101899
2019-03-22T00:44:53.794Z,101896
2019-03-22T00:47:22.653Z,101888
2019-03-22T00:49:51.502Z,101895
2019-03-22T00:52:20.352Z,101898
2019-03-22T00:54:49.180Z,101895
2019-03-22T00:57:27.993Z,101897
2019-03-22T00:59:46.876Z,101900
2019-03-22T01:02:16.462Z,101897
2019-03-22T01:04:45.301Z,101891
2019-03-22T01:07:14.160Z,101896
2019-03-22T01:09:43.012Z,101886
2019-03-22T01:12:11.850Z,101895
2019-03-22T01:14:41.447Z,101886
2019-03-22T01:17:11.043Z,101889
2019-03-22T01:19:40.656Z,101886
2019-03-22T01:22:09.501Z,101885
2019-03-22T01:24:38.352Z,101887
2019-03-22T01:27:07.210Z,101886
2019-03-22T01:29:36.061Z,101890
2019-03-22T01:32:04.927Z,101886
2019-03-22T01:34:33.774Z,101881
2019-03-22T01:37:02.622Z,101880
2019-03-22T01:39:31.464Z,101881
2019-03-22T01:42:00.311Z,101882
2019-03-22T01:44:29.881Z,101880
2019-03-22T01:46:58.719Z,101877
2019-03-22T01:49:27.557Z,101864
2019-03-22T01:51:56.394Z,101872
2019-03-22T01:54:25.247Z,101876
2019-03-22T01:56:54.835Z,101874
2019-03-22T01:59:24.430Z,101870
2019-03-22T02:01:53.576Z,101876
2019-03-22T02:04:22.422Z,101865
2019-03-22T02:06:52.011Z,101875
2019-03-22T02:09:21.466Z,101870
2019-03-22T02:11:51.865Z,101875
2019-03-22T02:14:21.431Z,101878
2019-03-22T02:16:50.284Z,101875
2019-03-22T02:19:19.141Z,101874
2019-03-22T02:21:48.719Z,101863
2019-03-22T02:24:17.545Z,101873
2019-03-22T02:26:47.394Z,101871
2019-03-22T02:29:16.232Z,101870
2019-03-22T02:31:45.835Z,101869
2019-03-22T02:34:14.667Z,101864
2019-03-22T02:36:43.511Z,101861
2019-03-22T02:39:12.416Z,101851
2019-03-22T02:41:41.456Z,101859
2019-03-22T02:44:10.347Z,101862
2019-03-22T02:46:39.879Z,101864
2019-03-22T02:49:08.735Z,101862
2019-03-22T02:51:37.569Z,101855
2019-03-22T02:54:06.410Z,101869
2019-03-22T02:56:35.265Z,101865
2019-03-22T02:59:04.091Z,101869
2019-03-22T03:01:32.936Z,101856
2019-03-22T03:04:01.806Z,101857
2019-03-22T03:06:30.614Z,101861
2019-03-22T03:08:59.461Z,101872
2019-03-22T03:11:28.539Z,101870
2019-03-22T03:13:58.015Z,101861
2019-03-22T03:16:26.860Z,101876
2019-03-22T03:18:55.724Z,101872
2019-03-22T03:21:24.556Z,101871
2019-03-22T03:23:53.382Z,101865
2019-03-22T03:26:22.266Z,101870
2019-03-22T03:28:51.099Z,101863
2019-03-22T03:31:20.014Z,101862
2019-03-22T03:33:49.528Z,101862
2019-03-22T03:36:18.339Z,101871
2019-03-22T03:38:47.172Z,101872
2019-03-22T03:41:16.015Z,101874
2019-03-22T03:43:45.579Z,101870
2019-03-22T03:46:14.748Z,101872
2019-03-22T03:48:43.592Z,101861
2019-03-22T03:51:13.179Z,101864
2019-03-22T03:53:42.042Z,101865
2019-03-22T03:56:10.862Z,101871
2019-03-22T03:58:51.544Z,101864
2019-03-22T04:01:08.531Z,101859
2019-03-22T04:03:37.371Z,101860
2019-03-22T04:06:06.232Z,101862
2019-03-22T04:08:35.077Z,101872
2019-03-22T04:11:03.922Z,101879
2019-03-22T04:13:32.756Z,101874
2019-03-22T04:16:01.630Z,101876
2019-03-22T04:18:30.463Z,101879
2019-03-22T04:21:00.125Z,101879
2019-03-22T04:23:29.118Z,101878
2019-03-22T04:25:57.968Z,101876
2019-03-22T04:28:26.810Z,101878
2019-03-22T04:30:55.647Z,101876
2019-03-22T04:33:24.502Z,101862
2019-03-22T04:35:53.327Z,101872
2019-03-22T04:38:22.170Z,101875
2019-03-22T04:40:51.010Z,101879
2019-03-22T04:43:19.855Z,101877
2019-03-22T04:45:48.680Z,101879
2019-03-22T04:48:21.454Z,101876
2019-03-22T04:50:50.360Z,101870
2019-03-22T04:53:21.777Z,101871
2019-03-22T04:55:48.050Z,101870
2019-03-22T04:58:16.885Z,101872
2019-03-22T05:00:45.715Z,101878
2019-03-22T05:03:14.558Z,101879
2019-03-22T05:05:44.385Z,101877
2019-03-22T05:08:13.235Z,101875
2019-03-22T05:10:42.106Z,101877
2019-03-22T05:13:10.998Z,101874
2019-03-22T05:15:39.804Z,101888
2019-03-22T05:18:08.672Z,101889
2019-03-22T05:20:37.508Z,101890
2019-03-22T05:23:06.370Z,101888
2019-03-22T05:25:35.222Z,101901
2019-03-22T05:28:04.068Z,101896
2019-03-22T05:33:22.748Z,101894
2019-03-22T05:35:52.354Z,101908
2019-03-22T05:38:21.934Z,101904
2019-03-22T05:40:50.786Z,101898
2019-03-22T05:43:19.623Z,101904
2019-03-22T05:45:48.772Z,101900
2019-03-22T05:48:17.619Z,101905
2019-03-22T05:50:47.224Z,101907
2019-03-22T05:53:16.344Z,101907
2019-03-22T05:55:45.170Z,101899
2019-03-22T05:58:14.370Z,101906
2019-03-22T06:00:43.224Z,101906
2019-03-22T06:03:12.202Z,101913
2019-03-22T06:05:41.791Z,101917
2019-03-22T06:08:10.663Z,101917
2019-03-22T06:10:39.581Z,101911
2019-03-22T06:13:08.395Z,101915
2019-03-22T06:15:37.286Z,101920
2019-03-22T06:18:06.922Z,101926
2019-03-22T06:20:35.764Z,101936
2019-03-22T06:23:04.619Z,101928
2019-03-22T06:25:33.481Z,101930
2019-03-22T06:28:02.326Z,101933
2019-03-22T06:30:31.180Z,101935
2019-03-22T06:33:00.144Z,101946
2019-03-22T06:35:28.923Z,101941
2019-03-22T06:37:58.494Z,101950
2019-03-22T06:40:27.361Z,101941
2019-03-22T06:42:56.462Z,101943
2019-03-22T06:45:25.288Z,101952
2019-03-22T06:47:54.148Z,101947
2019-03-22T06:50:22.985Z,101955
2019-03-22T06:52:52.112Z,101946
2019-03-22T06:55:20.696Z,101955
2019-03-22T06:57:49.606Z,101952
2019-03-22T07:00:19.367Z,101956
2019-03-22T07:02:48.210Z,101954
2019-03-22T07:05:17.804Z,101962
2019-03-22T07:07:46.662Z,101957
2019-03-22T07:10:15.512Z,101953
2019-03-22T07:12:44.384Z,101958
2019-03-22T07:15:13.989Z,101956
2019-03-22T07:17:43.857Z,101944
2019-03-22T07:20:12.702Z,101945
2019-03-22T07:22:41.542Z,101944
2019-03-22T07:25:10.417Z,101946
2019-03-22T07:27:39.324Z,101950
2019-03-22T07:30:17.951Z,101950
2019-03-22T07:32:37.798Z,101954
2019-03-22T07:35:06.647Z,101950
2019-03-22T07:37:35.524Z,101950
2019-03-22T07:40:07.184Z,101945
2019-03-22T07:42:36.034Z,101936
2019-03-22T07:45:04.901Z,101945
2019-03-22T07:47:33.755Z,101939
2019-03-22T07:50:04.920Z,101938
2019-03-22T07:52:34.770Z,101932
2019-03-22T07:55:03.687Z,101927
2019-03-22T07:57:32.521Z,101920
2019-03-22T08:00:01.387Z,101925
2019-03-22T08:02:30.311Z,101926
2019-03-22T08:04:59.158Z,101920
2019-03-22T08:07:29.026Z,101918
2019-03-22T08:09:58.170Z,101914
2019-03-22T08:12:26.978Z,101917
2019-03-22T08:14:55.856Z,101910
2019-03-22T08:17:24.705Z,101914
2019-03-22T08:19:53.573Z,101908
2019-03-22T08:22:22.463Z,101905
2019-03-22T08:24:51.386Z,101909
2019-03-22T08:27:20.225Z,101910
2019-03-22T08:29:49.046Z,101904
2019-03-22T08:32:18.148Z,101904
2019-03-22T08:34:47.903Z,101908
2019-03-22T08:37:15.892Z,101902
2019-03-22T08:39:46.395Z,101902
2019-03-22T08:42:16.308Z,101900
2019-03-22T08:44:45.132Z,101905
2019-03-22T08:47:14.029Z,101908
2019-03-22T08:49:43.008Z,101912
2019-03-22T08:52:11.752Z,101910
2019-03-22T08:54:40.568Z,101911
2019-03-22T08:57:10.163Z,101911
2019-03-22T08:59:39.015Z,101905
2019-03-22T09:02:08.420Z,101900
2019-03-22T09:04:36.743Z,101903
2019-03-22T09:07:05.584Z,101909
2019-03-22T09:09:41.433Z,101893
2019-03-22T09:12:03.381Z,101896
2019-03-22T09:14:32.179Z,101903
2019-03-22T09:17:02.010Z,101899
2019-03-22T09:19:30.901Z,101900
2019-03-22T09:21:59.867Z,101899
2019-03-22T09:24:38.644Z,101892
2019-03-22T09:26:57.465Z,101890
2019-03-22T09:29:27.354Z,101885
2019-03-22T09:31:56.207Z,101880
2019-03-22T09:34:33.742Z,101878
2019-03-22T09:36:53.912Z,101870
2019-03-22T09:39:22.777Z,101873
2019-03-22T09:41:51.636Z,101864
2019-03-22T09:44:20.489Z,101869
2019-03-22T09:46:49.346Z,101875
2019-03-22T09:49:18.188Z,101860
2019-03-22T09:51:47.787Z,101855
2019-03-22T09:54:16.679Z,101851
2019-03-22T09:56:47.486Z,101846
2019-03-22T09:59:15.104Z,101842
2019-03-22T10:01:43.939Z,101849
2019-03-22T10:04:12.792Z,101845
2019-03-22T10:06:41.635Z,101840
2019-03-22T10:09:10.482Z,101834
2019-03-22T10:11:39.330Z,101830
2019-03-22T10:14:09.796Z,101830
2019-03-22T10:16:38.642Z,101829
2019-03-22T10:19:08.274Z,101826
2019-03-22T10:21:37.117Z,101819
2019-03-22T10:24:06.007Z,101827
2019-03-22T10:26:35.186Z,101825
2019-03-22T10:29:06.888Z,101823
2019-03-22T10:31:37.555Z,101818
2019-03-22T10:34:02.538Z,101818
2019-03-22T10:36:32.126Z,101816
2019-03-22T10:39:01.732Z,101814
2019-03-22T10:41:30.607Z,101811
2019-03-22T10:43:59.438Z,101815
2019-03-22T10:46:28.273Z,101812
2019-03-22T10:48:57.127Z,101815
2019-03-22T10:51:26.001Z,101808
2019-03-22T10:53:55.700Z,101815
2019-03-22T10:56:25.032Z,101813
2019-03-22T10:58:53.313Z,101813
2019-03-22T11:01:22.159Z,101810
2019-03-22T11:03:51.131Z,101802
2019-03-22T11:06:26.156Z,101808
2019-03-22T11:08:49.723Z,101807
2019-03-22T11:11:18.561Z,101804
2019-03-22T11:13:47.753Z,101803
2019-03-22T11:16:16.625Z,101796
2019-03-22T11:18:45.453Z,101796
2019-03-22T11:21:15.071Z,101785
2019-03-22T11:23:44.949Z,101781
2019-03-22T11:26:13.798Z,101782
2019-03-22T11:28:42.653Z,101784
2019-03-22T11:31:11.501Z,101788
2019-03-22T11:33:40.357Z,101776
2019-03-22T11:36:09.201Z,101777
2019-03-22T11:38:38.053Z,101779
2019-03-22T11:41:06.902Z,101773
2019-03-22T11:43:35.755Z,101766
2019-03-22T11:46:04.605Z,101767
2019-03-22T11:48:33.475Z,101770
2019-03-22T11:51:02.335Z,101765
2019-03-22T11:53:31.210Z,101763
2019-03-22T11:56:01.043Z,101765
2019-03-22T11:58:29.927Z,101762
2019-03-22T12:00:58.769Z,101756
2019-03-22T12:03:27.618Z,101754
2019-03-22T12:05:56.466Z,101757
2019-03-22T12:08:25.587Z,101752
2019-03-22T12:10:54.153Z,101745
2019-03-22T12:13:23.001Z,101741
2019-03-22T12:15:51.873Z,101746
2019-03-22T12:18:20.741Z,101739
2019-03-22T12:20:49.639Z,101738
2019-03-22T12:23:18.478Z,101728
2019-03-22T12:25:47.335Z,101729
2019-03-22T12:28:16.195Z,101727
2019-03-22T12:30:45.419Z,101723
2019-03-22T12:33:14.233Z,101714
2019-03-22T12:35:43.133Z,101723
2019-03-22T12:38:12.695Z,101717
2019-03-22T12:40:42.141Z,101714
2019-03-22T12:43:10.999Z,101711
2019-03-22T12:45:39.854Z,101713
2019-03-22T12:48:08.697Z,101709
2019-03-22T12:50:37.605Z,101702
2019-03-22T12:53:06.423Z,101697
2019-03-22T12:55:35.267Z,101686
2019-03-22T12:58:05.654Z,101687
2019-03-22T13:00:34.505Z,101693
2019-03-22T13:03:03.366Z,101677
2019-03-22T13:05:32.962Z,101679
2019-03-22T13:08:02.557Z,101670
2019-03-22T13:10:31.729Z,101668
2019-03-22T13:13:00.625Z,101668
2019-03-22T13:15:29.481Z,101661
2019-03-22T13:17:58.366Z,101662
2019-03-22T13:20:27.188Z,101657
2019-03-22T13:22:56.035Z,101662
2019-03-22T13:25:24.877Z,101653
2019-03-22T13:28:06.645Z,101656
2019-03-22T13:30:35.495Z,101654
2019-03-22T13:33:05.101Z,101652
2019-03-22T13:35:34.687Z,101645
2019-03-22T13:38:03.848Z,101644
2019-03-22T13:40:33.479Z,101642
2019-03-22T13:43:03.148Z,101644
2019-03-22T13:45:31.989Z,101637
2019-03-22T13:48:01.753Z,101633
2019-03-22T13:50:30.578Z,101633
2019-03-22T13:52:59.686Z,101632
2019-03-22T13:55:28.492Z,101626
2019-03-22T13:57:58.078Z,101636
2019-03-22T14:00:26.934Z,101630
2019-03-22T14:03:02.893Z,101625
2019-03-22T14:05:24.964Z,101621
2019-03-22T14:07:53.830Z,101618
2019-03-22T14:10:27.536Z,101613
2019-03-22T14:12:56.381Z,101609
2019-03-22T14:15:25.228Z,101617
2019-03-22T14:17:54.144Z,101608
2019-03-22T14:20:22.976Z,101602
2019-03-22T14:22:53.831Z,101603
2019-03-22T14:25:21.425Z,101600
2019-03-22T14:27:50.274Z,101601
2019-03-22T14:30:19.130Z,101598
2019-03-22T14:32:47.967Z,101599
2019-03-22T14:35:17.528Z,101592
2019-03-22T14:37:46.640Z,101594
2019-03-22T14:40:15.938Z,101594
2019-03-22T14:42:44.351Z,101592
2019-03-22T14:45:13.501Z,101589
2019-03-22T14:47:42.346Z,101585
2019-03-22T14:50:11.942Z,101581
2019-03-22T14:52:40.825Z,101574
2019-03-22T14:55:09.690Z,101575
2019-03-22T14:57:48.073Z,101568
2019-03-22T15:00:07.402Z,101569
2019-03-22T15:02:37.002Z,101564
2019-03-22T15:05:05.851Z,101560
2019-03-22T15:07:35.045Z,101561
2019-03-22T15:10:03.908Z,101552
2019-03-22T15:12:32.758Z,101545
2019-03-22T15:15:03.379Z,101551
2019-03-22T15:17:32.443Z,101551
2019-03-22T15:20:06.920Z,101543
2019-03-22T15:22:38.311Z,101539
2019-03-22T15:25:08.898Z,101528
2019-03-22T15:27:39.632Z,101535
2019-03-22T15:30:14.014Z,101533
2019-03-22T15:32:42.863Z,101531
2019-03-22T15:35:14.597Z,101531
2019-03-22T15:37:44.467Z,101542
2019-03-22T15:40:14.811Z,101535
2019-03-22T15:42:43.678Z,101540
2019-03-22T15:45:12.535Z,101525
2019-03-22T15:47:41.362Z,101523
2019-03-22T15:50:10.204Z,101524
2019-03-22T15:52:39.839Z,101517
2019-03-22T15:55:08.715Z,101511
2019-03-22T15:57:37.576Z,101508
2019-03-22T16:00:09.129Z,101513
2019-03-22T16:02:37.982Z,101513
2019-03-22T16:05:06.815Z,101515
2019-03-22T16:07:35.652Z,101513
2019-03-22T16:10:05.297Z,101515
2019-03-22T16:12:34.144Z,101506
2019-03-22T16:15:07.053Z,101512
2019-03-22T16:17:35.808Z,101514
2019-03-22T16:20:05.574Z,101508
2019-03-22T16:22:34.418Z,101511
2019-03-22T16:25:03.984Z,101517
2019-03-22T16:27:33.791Z,101515
2019-03-22T16:30:03.392Z,101517
2019-03-22T16:32:32.279Z,101522
2019-03-22T16:35:01.136Z,101519
2019-03-22T16:37:29.980Z,101512
2019-03-22T16:39:58.839Z,101511
2019-03-22T16:42:27.716Z,101519
2019-03-22T16:44:56.580Z,101513
2019-03-22T16:47:25.443Z,101517
2019-03-22T16:49:54.558Z,101513
2019-03-22T16:52:23.405Z,101512
2019-03-22T16:54:52.268Z,101523
2019-03-22T16:57:21.149Z,101518
2019-03-22T16:59:50.004Z,101522
2019-03-22T17:02:18.857Z,101522
2019-03-22T17:04:47.759Z,101521
2019-03-22T17:07:17.157Z,101520
2019-03-22T17:09:45.999Z,101524
2019-03-22T17:12:15.746Z,101520
2019-03-22T17:14:44.609Z,101520
2019-03-22T17:17:13.470Z,101517
2019-03-22T17:19:42.338Z,101514
2019-03-22T17:22:11.746Z,101519
2019-03-22T17:24:41.283Z,101517
2019-03-22T17:27:10.132Z,101514
2019-03-22T17:29:38.983Z,101518
2019-03-22T17:32:07.853Z,101513
2019-03-22T17:34:36.681Z,101515
2019-03-22T17:37:05.532Z,101523
2019-03-22T17:39:34.377Z,101521
2019-03-22T17:42:03.214Z,101528
2019-03-22T17:44:32.059Z,101524
2019-03-22T17:47:00.888Z,101519
2019-03-22T17:49:31.428Z,101525
2019-03-22T17:52:00.253Z,101525
2019-03-22T17:54:30.096Z,101526
2019-03-22T17:56:58.936Z,101528
2019-03-22T17:59:28.661Z,101537
2019-03-22T18:01:57.785Z,101534
2019-03-22T18:04:26.885Z,101549
2019-03-22T18:09:21.597Z,101543
2019-03-22T18:11:50.434Z,101537
2019-03-22T18:14:19.435Z,101540
2019-03-22T18:16:48.282Z,101541
2019-03-22T18:19:17.562Z,101540
2019-03-22T18:21:46.326Z,101548
2019-03-22T18:24:15.169Z,101542
2019-03-22T18:26:43.993Z,101543
2019-03-22T18:29:13.121Z,101552
2019-03-22T18:31:41.912Z,101546
2019-03-22T18:34:10.749Z,101551
2019-03-22T18:36:39.593Z,101549
2019-03-22T18:39:08.440Z,101541
2019-03-22T18:41:38.821Z,101535
2019-03-22T18:44:07.659Z,101531
2019-03-22T18:46:37.252Z,101543
2019-03-22T18:49:06.084Z,101545
2019-03-22T18:51:34.931Z,101541
2019-03-22T18:54:04.536Z,101541
2019-03-22T18:56:33.379Z,101533
2019-03-22T18:59:02.226Z,101531
2019-03-22T19:01:32.675Z,101536
2019-03-22T19:04:01.534Z,101544
2019-03-22T19:06:31.176Z,101539
2019-03-22T19:08:59.981Z,101547
2019-03-22T19:11:28.825Z,101542
2019-03-22T19:13:58.423Z,101548
2019-03-22T19:16:27.999Z,101548
2019-03-22T19:18:57.073Z,101553
2019-03-22T19:21:25.928Z,101551
2019-03-22T19:23:55.502Z,101549
2019-03-22T19:26:24.341Z,101551
2019-03-22T19:28:53.171Z,101547
2019-03-22T19:31:22.852Z,101546
2019-03-22T19:33:51.585Z,101549
2019-03-22T19:36:20.465Z,101547
2019-03-22T19:38:49.929Z,101542
2019-03-22T19:41:18.815Z,101549
2019-03-22T19:43:47.671Z,101550
2019-03-22T19:46:16.511Z,101542
2019-03-22T19:48:45.366Z,101545
2019-03-22T19:51:14.244Z,101550
2019-03-22T19:53:43.104Z,101549
2019-03-22T19:56:11.967Z,101547
2019-03-22T19:58:40.843Z,101542
2019-03-22T20:01:10.665Z,101533
2019-03-22T20:03:40.317Z,101546
2019-03-22T20:06:09.161Z,101536
2019-03-22T20:08:38.030Z,101540
2019-03-22T20:11:06.883Z,101537
2019-03-22T20:13:35.731Z,101536
2019-03-22T20:16:04.589Z,101536
2019-03-22T20:18:33.451Z,101536
2019-03-22T20:21:02.321Z,101541
2019-03-22T20:23:31.186Z,101535
2019-03-22T20:26:00.277Z,101543
2019-03-22T20:28:29.211Z,101541
2019-03-22T20:30:58.069Z,101540
2019-03-22T20:33:26.929Z,101537
2019-03-22T20:35:55.790Z,101543
2019-03-22T20:38:25.387Z,101544
2019-03-22T20:40:54.247Z,101540
2019-03-22T20:43:23.115Z,101544
2019-03-22T20:45:51.988Z,101542
2019-03-22T20:48:20.853Z,101541
2019-03-22T20:50:50.466Z,101538
2019-03-22T20:53:20.104Z,101538
2019-03-22T20:55:48.938Z,101537
2019-03-22T20:58:17.810Z,101536
2019-03-22T21:00:46.660Z,101534
2019-03-22T21:03:16.259Z,101527
2019-03-22T21:05:45.116Z,101527
2019-03-22T21:08:13.962Z,101531
2019-03-22T21:10:42.865Z,101535
2019-03-22T21:13:11.746Z,101538
2019-03-22T21:15:40.602Z,101536
2019-03-22T21:18:09.460Z,101535
2019-03-22T21:20:38.386Z,101543
2019-03-22T21:23:07.307Z,101543
2019-03-22T21:25:36.952Z,101558
2019-03-22T21:28:05.797Z,101555
2019-03-22T21:30:34.657Z,101558
2019-03-22T21:33:04.262Z,101558
2019-03-22T21:35:37.291Z,101563
2019-03-22T21:38:10.899Z,101556
2019-03-22T21:40:32.439Z,101561
2019-03-22T21:43:01.304Z,101563
2019-03-22T21:45:30.143Z,101553
2019-03-22T21:47:59.000Z,101554
2019-03-22T21:50:27.849Z,101545
2019-03-22T21:52:56.690Z,101547
2019-03-22T21:55:25.553Z,101539
2019-03-22T21:57:54.388Z,101550
2019-03-22T22:00:23.250Z,101544
2019-03-22T22:02:52.100Z,101544
2019-03-22T22:05:20.958Z,101543
2019-03-22T22:07:50.550Z,101544
2019-03-22T22:10:19.397Z,101540
2019-03-22T22:12:48.273Z,101541
2019-03-22T22:15:17.092Z,101536
2019-03-22T22:17:45.958Z,101541
2019-03-22T22:20:14.810Z,101539
2019-03-22T22:22:44.414Z,101532
2019-03-22T22:25:13.260Z,101537
2019-03-22T22:27:54.796Z,101534
2019-03-22T22:30:23.644Z,101542
2019-03-22T22:32:52.498Z,101536
2019-03-22T22:35:21.356Z,101532
2019-03-22T22:37:50.227Z,101536
2019-03-22T22:40:19.087Z,101534
2019-03-22T22:42:48.722Z,101530
2019-03-22T22:45:17.558Z,101537
2019-03-22T22:47:46.420Z,101533
2019-03-22T22:50:15.287Z,101538
2019-03-22T22:52:44.143Z,101540
2019-03-22T22:55:13.748Z,101542
2019-03-22T22:57:43.345Z,101535
2019-03-22T23:00:12.215Z,101528
2019-03-22T23:02:41.089Z,101525
2019-03-22T23:05:09.976Z,101529
2019-03-22T23:07:38.831Z,101529
2019-03-22T23:10:08.450Z,101526
2019-03-22T23:12:37.292Z,101523
2019-03-22T23:15:06.139Z,101532
2019-03-22T23:17:35.992Z,101522
2019-03-22T23:20:05.310Z,101526
2019-03-22T23:22:34.904Z,101531
2019-03-22T23:25:03.779Z,101529
2019-03-22T23:27:32.646Z,101532
2019-03-22T23:30:01.507Z,101536
2019-03-22T23:32:30.350Z,101539
2019-03-22T23:34:59.476Z,101536
2019-03-22T23:37:28.058Z,101539
2019-03-22T23:39:57.659Z,101533
2019-03-22T23:42:26.518Z,101536
2019-03-22T23:44:55.377Z,101540
2019-03-22T23:47:24.246Z,101536
2019-03-22T23:49:53.084Z,101542
2019-03-22T23:52:21.925Z,101541
2019-03-22T23:54:50.771Z,101534
2019-03-22T23:57:19.606Z,101534
2019-03-22T23:59:48.438Z,101531
